Time;durP1;ratioP1;P1;durP2;ratioP2;P2;SDS_P1;SDS_P2;PMS_P1;PMS_P2;Temp;Humidity;BMP_temperature;BMP_pressure;BME280_temperature;BME280_humidity;BME280_pressure;Samples;Min_cycle;Max_cycle;Signal;HPM_P1;HPM_P2
2022/10/25 00:00:03;;;;;;;4.75;3.60;;;;;;;23.61;46.07;100961.50;5109612;27;20042;-67
2022/10/25 00:02:37;;;;;;;3.72;1.90;;;;;;;23.61;46.22;100961.50;5111346;27;20047;-67
2022/10/25 00:05:04;;;;;;;4.63;2.25;;;;;;;23.60;46.06;100962.53;5104221;27;20035;-66
2022/10/25 00:07:29;;;;;;;3.88;1.83;;;;;;;23.62;46.00;100959.66;5106329;27;20496;-66
2022/10/25 00:09:55;;;;;;;3.78;2.50;;;;;;;23.61;46.02;100955.38;5114760;27;20042;-67
2022/10/25 00:12:20;;;;;;;5.82;2.10;;;;;;;23.60;46.14;100953.72;5113010;27;20528;-67
2022/10/25 00:14:46;;;;;;;3.40;2.10;;;;;;;23.58;45.97;100961.91;5109758;27;20042;-67
2022/10/25 00:17:11;;;;;;;3.13;2.10;;;;;;;23.60;46.21;100956.38;5113362;27;20039;-67
2022/10/25 00:19:37;;;;;;;3.83;2.10;;;;;;;23.55;46.25;100950.84;5111012;27;20043;-67
2022/10/25 00:22:02;;;;;;;3.75;2.58;;;;;;;23.52;46.16;100958.19;5112795;27;20043;-67
2022/10/25 00:24:28;;;;;;;4.50;2.20;;;;;;;23.52;46.03;100957.38;5108916;27;20518;-67
2022/10/25 00:26:53;;;;;;;3.20;2.10;;;;;;;23.52;46.22;100952.88;5107454;27;20034;-66
2022/10/25 00:29:19;;;;;;;3.47;2.08;;;;;;;23.54;46.37;100959.84;5110309;27;20043;-67
2022/10/25 00:31:45;;;;;;;3.45;2.08;;;;;;;23.58;46.05;100958.44;5112014;27;20045;-67
2022/10/25 00:34:10;;;;;;;1.90;1.75;;;;;;;23.51;46.27;100955.72;5117871;27;20047;-67
2022/10/25 00:36:36;;;;;;;3.60;2.25;;;;;;;23.55;46.21;100956.16;5119852;27;20092;-67
2022/10/25 00:39:02;;;;;;;5.43;2.35;;;;;;;23.57;46.03;100962.13;5106513;27;20040;-67
2022/10/25 00:41:31;;;;;;;3.35;2.08;;;;;;;23.50;46.07;100972.69;5118189;27;20127;-67
2022/10/25 00:44:34;;;;;;;2.70;1.85;;;;;;;23.54;46.20;100970.47;5114293;27;20035;-67
2022/10/25 00:47:01;;;;;;;4.38;2.30;;;;;;;23.41;46.33;100973.91;5116751;27;20074;-67
2022/10/25 00:49:27;;;;;;;4.90;2.45;;;;;;;23.41;46.28;100966.75;5121655;27;20397;-67
2022/10/25 00:51:57;;;;;;;4.45;2.45;;;;;;;23.54;46.10;100975.78;5111875;27;20032;-66
2022/10/25 00:54:27;;;;;;;4.90;2.53;;;;;;;23.43;46.13;100972.66;5117657;27;20493;-66
2022/10/25 00:56:57;;;;;;;6.03;2.30;;;;;;;23.48;46.11;100974.72;5114362;27;20047;-67
2022/10/25 00:59:26;;;;;;;4.63;2.30;;;;;;;23.48;46.19;100985.34;5114558;27;20034;-67
2022/10/25 01:01:52;;;;;;;3.03;2.05;;;;;;;23.49;46.24;100997.63;5108737;27;20102;-66
2022/10/25 01:04:20;;;;;;;3.72;2.20;;;;;;;23.51;46.29;100985.75;5110694;27;20035;-67
2022/10/25 01:06:48;;;;;;;5.55;1.90;;;;;;;23.47;46.10;100997.81;5109075;27;20673;-66
2022/10/25 01:09:18;;;;;;;3.78;2.17;;;;;;;23.45;46.50;101001.69;5106196;27;20099;-66
2022/10/25 01:11:44;;;;;;;3.47;2.10;;;;;;;23.44;46.10;100995.56;5117594;27;20031;-66
2022/10/25 01:14:13;;;;;;;2.47;1.88;;;;;;;23.50;46.36;101001.91;5107388;27;20054;-66
2022/10/25 01:16:46;;;;;;;3.80;1.95;;;;;;;23.49;46.07;100995.78;5111583;27;20114;-66
2022/10/25 01:19:44;;;;;;;2.70;2.13;;;;;;;23.45;46.38;100999.03;5106786;27;20035;-66
2022/10/25 01:22:32;;;;;;;4.45;2.13;;;;;;;23.39;46.35;100998.00;5110485;27;20457;-66
2022/10/25 01:25:23;;;;;;;2.55;1.90;;;;;;;23.35;46.62;100995.97;5110841;27;20397;-66
2022/10/25 01:28:07;;;;;;;3.45;2.25;;;;;;;23.46;46.20;101000.69;5111437;27;21574;-66
2022/10/25 01:31:03;;;;;;;3.47;2.00;;;;;;;23.45;46.16;101012.34;5108302;27;20107;-67
2022/10/25 01:33:42;;;;;;;3.17;2.17;;;;;;;23.44;46.43;101011.50;5112182;27;21884;-66
2022/10/25 01:36:15;;;;;;;4.32;2.53;;;;;;;23.40;46.25;101002.31;5109561;27;20063;-66
2022/10/25 01:39:10;;;;;;;3.08;1.92;;;;;;;23.45;46.25;101012.34;5111070;27;20046;-66
2022/10/25 01:41:43;;;;;;;3.28;2.35;;;;;;;23.37;46.34;101008.03;5109387;27;20100;-66
2022/10/25 01:44:17;;;;;;;3.05;2.05;;;;;;;23.40;46.45;101007.63;5108472;27;20300;-66
2022/10/25 01:47:03;;;;;;;4.22;2.00;;;;;;;23.40;46.44;101004.97;5109104;27;20142;-66
2022/10/25 01:50:04;;;;;;;3.95;1.90;;;;;;;23.42;46.29;101004.75;5107799;27;21829;-66
2022/10/25 01:52:30;;;;;;;2.58;1.80;;;;;;;23.39;46.20;101010.47;5068199;27;20098;-67
2022/10/25 01:54:55;;;;;;;2.95;2.10;;;;;;;23.37;46.30;101009.88;5108177;27;20059;-67
2022/10/25 01:57:39;;;;;;;2.92;2.15;;;;;;;23.38;46.44;101009.66;5106300;27;20039;-66
2022/10/25 02:00:10;;;;;;;2.40;1.80;;;;;;;23.41;46.45;101014.56;5109229;27;20031;-66
2022/10/25 02:03:17;;;;;;;4.72;2.15;;;;;;;23.37;46.24;101009.88;5109011;27;20086;-67
2022/10/25 02:05:52;;;;;;;3.33;2.25;;;;;;;23.37;46.33;101009.88;5110143;27;20370;-67
2022/10/25 02:08:30;;;;;;;5.10;2.20;;;;;;;23.38;46.26;101016.81;5108553;27;20027;-66
2022/10/25 02:11:19;;;;;;;4.35;2.08;;;;;;;23.43;46.28;101012.53;5105561;27;20042;-66
2022/10/25 02:13:57;;;;;;;4.25;2.33;;;;;;;23.38;46.33;101006.19;5106838;27;20032;-66
2022/10/25 02:16:48;;;;;;;3.75;2.10;;;;;;;23.36;46.35;101008.22;5107086;27;20046;-66
2022/10/25 02:19:19;;;;;;;2.80;1.90;;;;;;;23.38;46.51;101000.88;5105666;27;20040;-66
2022/10/25 02:21:47;;;;;;;2.58;2.08;;;;;;;23.37;46.45;101001.88;5107790;27;20039;-66
2022/10/25 02:24:17;;;;;;;4.20;2.28;;;;;;;23.37;46.32;100997.41;5105730;27;20612;-66
2022/10/25 02:26:45;;;;;;;4.68;2.15;;;;;;;23.41;46.41;101003.94;5108856;27;20039;-66
2022/10/25 02:29:13;;;;;;;2.20;2.00;;;;;;;23.36;46.53;101013.53;5108658;27;20038;-65
2022/10/25 02:31:38;;;;;;;3.40;2.20;;;;;;;23.34;46.29;101005.78;5106339;27;20046;-67
2022/10/25 02:34:04;;;;;;;3.97;2.15;;;;;;;23.34;46.46;101008.44;5109181;27;20047;-66
2022/10/25 02:36:30;;;;;;;4.30;2.67;;;;;;;23.39;46.44;101010.47;5106886;27;20044;-65
2022/10/25 02:38:56;;;;;;;3.72;2.03;;;;;;;23.27;46.53;101007.56;5108882;27;20039;-67
2022/10/25 02:41:22;;;;;;;3.40;2.35;;;;;;;23.35;46.47;101009.25;5108469;27;21655;-66
2022/10/25 02:43:48;;;;;;;2.40;2.17;;;;;;;23.29;46.42;101012.66;5108041;27;20027;-66
2022/10/25 02:46:18;;;;;;;6.57;2.40;;;;;;;23.35;46.54;101011.91;5106341;27;20488;-67
2022/10/25 02:48:45;;;;;;;3.53;2.17;;;;;;;23.30;46.41;101001.03;5108702;27;20401;-66
2022/10/25 02:51:12;;;;;;;2.80;2.22;;;;;;;23.27;46.34;101014.72;5106780;27;20096;-66
2022/10/25 02:53:38;;;;;;;3.63;2.22;;;;;;;23.33;46.38;101013.91;5110964;27;20039;-66
2022/10/25 02:56:06;;;;;;;3.33;2.15;;;;;;;23.31;46.36;101015.94;5109376;27;20055;-66
2022/10/25 02:58:35;;;;;;;3.70;2.22;;;;;;;23.24;46.71;101021.25;5106451;27;20091;-66
2022/10/25 03:01:00;;;;;;;2.78;2.28;;;;;;;23.27;46.61;101022.69;5105444;27;20027;-66
2022/10/25 03:03:27;;;;;;;3.78;2.45;;;;;;;23.27;46.45;101031.47;5105134;27;20048;-66
2022/10/25 03:05:53;;;;;;;4.20;2.15;;;;;;;23.29;46.50;101023.31;5102860;27;20042;-65
2022/10/25 03:08:19;;;;;;;2.67;2.42;;;;;;;23.30;46.56;101031.06;5104731;27;20044;-66
2022/10/25 03:10:45;;;;;;;3.03;2.30;;;;;;;23.28;46.60;101022.47;5109256;27;20054;-66
2022/10/25 03:13:10;;;;;;;3.33;2.08;;;;;;;23.31;46.48;101034.53;5102707;27;20043;-66
2022/10/25 03:15:36;;;;;;;3.85;2.22;;;;;;;23.31;46.61;101042.53;5104976;27;21486;-66
2022/10/25 03:18:02;;;;;;;3.35;2.45;;;;;;;23.32;46.37;101038.84;5106298;27;20047;-66
2022/10/25 03:20:27;;;;;;;4.15;2.35;;;;;;;23.28;46.42;101049.06;5104410;27;20062;-66
2022/10/25 03:22:53;;;;;;;2.58;2.08;;;;;;;23.29;46.35;101044.56;5105470;27;20441;-66
2022/10/25 03:25:18;;;;;;;3.15;2.20;;;;;;;23.16;46.69;101032.03;5105263;27;20032;-66
2022/10/25 03:27:44;;;;;;;4.30;2.00;;;;;;;23.28;46.42;101042.91;5103220;27;20038;-66
2022/10/25 03:30:12;;;;;;;2.83;2.03;;;;;;;23.19;46.55;101043.09;5103726;27;20501;-66
2022/10/25 03:32:38;;;;;;;2.72;2.38;;;;;;;23.27;46.62;101055.38;5102391;27;20054;-66
2022/10/25 03:35:05;;;;;;;2.78;2.22;;;;;;;23.22;46.59;101060.47;5088534;28;20056;-66
2022/10/25 03:37:31;;;;;;;2.78;2.15;;;;;;;23.22;46.57;101055.16;5085505;28;20974;-66
2022/10/25 03:39:56;;;;;;;2.65;2.28;;;;;;;23.28;46.55;101064.19;5088966;28;20035;-66
2022/10/25 03:42:22;;;;;;;3.65;2.22;;;;;;;23.31;46.33;101067.25;5084072;28;20044;-66
2022/10/25 03:44:48;;;;;;;3.05;2.13;;;;;;;23.25;46.38;101062.75;5084402;28;20116;-66
2022/10/25 03:47:13;;;;;;;3.42;2.10;;;;;;;23.25;46.27;101069.88;5085284;28;20024;-66
2022/10/25 03:49:39;;;;;;;3.40;2.30;;;;;;;23.16;46.58;101070.06;5081233;28;20474;-66
2022/10/25 03:52:07;;;;;;;4.75;2.20;;;;;;;23.24;46.38;101074.38;5086786;28;20675;-66
2022/10/25 03:54:34;;;;;;;3.20;2.08;;;;;;;23.24;46.50;101081.53;5089708;28;20146;-66
2022/10/25 03:57:00;;;;;;;2.92;2.30;;;;;;;23.31;46.27;101085.03;5086312;28;20044;-66
2022/10/25 03:59:26;;;;;;;2.65;2.30;;;;;;;23.20;46.59;101086.44;5086560;28;20035;-66
2022/10/25 04:01:52;;;;;;;2.70;2.40;;;;;;;23.20;46.70;101091.75;5084373;28;20042;-66
2022/10/25 04:04:17;;;;;;;4.68;2.33;;;;;;;23.13;46.70;101081.06;5085389;28;20039;-66
2022/10/25 04:06:43;;;;;;;3.67;2.15;;;;;;;23.13;46.74;101077.56;5086488;28;20123;-66
2022/10/25 04:09:08;;;;;;;4.50;2.50;;;;;;;23.20;46.43;101091.75;5086352;28;20039;-66
2022/10/25 04:11:34;;;;;;;3.03;2.10;;;;;;;23.20;46.51;101094.41;5081959;28;20860;-66
2022/10/25 04:13:59;;;;;;;2.78;2.13;;;;;;;23.20;46.51;101099.72;5089980;28;20055;-67
2022/10/25 04:16:25;;;;;;;2.28;1.90;;;;;;;23.16;46.66;101096.63;5086022;28;20042;-67
2022/10/25 04:18:56;;;;;;;3.03;2.13;;;;;;;23.14;46.67;101105.78;5081995;28;20069;-67
2022/10/25 04:21:22;;;;;;;3.80;2.10;;;;;;;23.17;46.68;101105.41;5082883;28;20055;-66
2022/10/25 04:23:51;;;;;;;3.72;1.98;;;;;;;23.13;46.54;101106.78;5088824;28;20031;-67
2022/10/25 04:26:18;;;;;;;4.32;2.20;;;;;;;23.17;46.54;101108.06;5086798;28;20129;-66
2022/10/25 04:28:49;;;;;;;2.22;2.03;;;;;;;23.18;46.72;101112.38;5086615;28;20058;-66
2022/10/25 04:31:14;;;;;;;3.50;2.30;;;;;;;23.15;46.66;101110.91;5084120;28;20137;-67
2022/10/25 04:33:40;;;;;;;2.42;2.00;;;;;;;23.17;46.71;101111.56;5082773;28;20047;-66
2022/10/25 04:36:06;;;;;;;5.15;2.45;;;;;;;23.15;46.63;101118.88;5090060;28;20047;-69
2022/10/25 04:38:31;;;;;;;4.20;2.10;;;;;;;23.11;46.63;101117.63;5089764;28;20056;-68
2022/10/25 04:40:58;;;;;;;2.58;2.22;;;;;;;23.15;46.61;101113.56;5092006;28;20044;-69
2022/10/25 04:43:27;;;;;;;2.42;2.10;;;;;;;23.13;46.56;101115.59;5089426;28;20109;-68
2022/10/25 04:45:53;;;;;;;3.17;2.03;;;;;;;23.08;46.68;101120.66;5094691;28;20042;-66
2022/10/25 04:48:20;;;;;;;4.45;2.25;;;;;;;23.09;46.95;101122.31;5088165;28;20040;-66
2022/10/25 04:50:45;;;;;;;3.17;2.17;;;;;;;23.15;46.42;101116.22;5092457;28;20043;-68
2022/10/25 04:53:11;;;;;;;3.65;2.20;;;;;;;23.13;46.45;101117.44;5093557;28;20031;-69
2022/10/25 04:55:37;;;;;;;2.60;2.00;;;;;;;23.09;46.50;101116.19;5091460;28;20130;-66
2022/10/25 04:58:02;;;;;;;2.83;2.38;;;;;;;23.20;46.49;101128.94;5090873;28;20093;-67
2022/10/25 05:00:28;;;;;;;4.07;2.17;;;;;;;23.14;46.63;101121.72;5090663;28;20043;-67
2022/10/25 05:02:54;;;;;;;3.53;2.22;;;;;;;23.09;46.80;101121.50;5091297;28;20111;-67
2022/10/25 05:05:21;;;;;;;3.13;2.08;;;;;;;23.16;46.44;101122.34;5088867;28;20536;-67
2022/10/25 05:07:47;;;;;;;2.58;2.00;;;;;;;23.14;46.60;101124.38;5093404;28;20032;-67
2022/10/25 05:10:13;;;;;;;3.35;2.00;;;;;;;23.19;46.38;101129.94;5096781;28;20058;-69
2022/10/25 05:12:38;;;;;;;2.83;2.22;;;;;;;23.05;46.89;101126.38;5093026;28;20040;-69
2022/10/25 05:15:05;;;;;;;3.35;2.10;;;;;;;23.08;46.70;101133.94;5093788;28;20040;-69
2022/10/25 05:17:31;;;;;;;3.22;2.30;;;;;;;23.09;46.64;101135.59;5097388;28;20048;-69
2022/10/25 05:19:56;;;;;;;3.40;2.30;;;;;;;23.10;46.70;101128.44;5089417;28;20414;-69
2022/10/25 05:22:22;;;;;;;4.00;2.35;;;;;;;23.14;46.50;101132.34;5091251;28;20485;-69
2022/10/25 05:24:47;;;;;;;3.42;2.40;;;;;;;23.09;46.62;101140.91;5091047;27;20035;-70
2022/10/25 05:27:13;;;;;;;3.30;2.70;;;;;;;23.04;46.77;101139.84;5095847;28;20032;-69
2022/10/25 05:29:39;;;;;;;3.60;2.40;;;;;;;23.09;46.64;101142.75;5088377;28;20400;-69
2022/10/25 05:32:05;;;;;;;4.60;2.47;;;;;;;23.10;46.54;101141.72;5084354;28;20051;-69
2022/10/25 05:34:30;;;;;;;3.30;2.38;;;;;;;23.11;46.40;101146.03;5085919;28;20054;-69
2022/10/25 05:36:56;;;;;;;2.47;2.22;;;;;;;23.02;46.74;101142.69;5088779;28;20062;-69
2022/10/25 05:39:22;;;;;;;2.30;2.05;;;;;;;22.98;46.75;101137.94;5086123;28;20044;-69
2022/10/25 05:41:48;;;;;;;4.00;2.28;;;;;;;23.06;46.64;101138.63;5089853;28;20036;-69
2022/10/25 05:44:15;;;;;;;2.25;1.98;;;;;;;23.03;46.52;101157.63;5088026;28;21738;-69
2022/10/25 05:46:42;;;;;;;5.70;2.25;;;;;;;23.05;46.81;101158.25;5086599;28;20039;-69
2022/10/25 05:49:09;;;;;;;4.28;2.30;;;;;;;23.03;46.69;101156.81;5094053;28;20035;-69
2022/10/25 05:51:35;;;;;;;3.13;1.77;;;;;;;23.04;47.01;101161.09;5090384;28;20039;-69
2022/10/25 05:54:10;;;;;;;2.45;2.00;;;;;;;23.01;46.76;101167.63;5086033;28;20121;-69
2022/10/25 05:56:36;;;;;;;2.92;2.10;;;;;;;22.98;46.89;101170.66;5089402;28;20038;-67
2022/10/25 05:59:13;;;;;;;3.05;2.10;;;;;;;23.01;46.72;101177.44;5087472;28;20377;-68
2022/10/25 06:01:43;;;;;;;4.43;2.20;;;;;;;23.06;46.53;101177.66;5087865;28;20039;-68
2022/10/25 06:04:09;;;;;;;4.95;2.40;;;;;;;23.01;46.70;101169.47;5092333;28;20407;-68
2022/10/25 06:06:37;;;;;;;4.40;2.50;;;;;;;23.00;47.00;101176.59;5095281;28;20032;-68
2022/10/25 06:09:04;;;;;;;5.75;2.63;;;;;;;23.02;46.94;101173.75;5092363;28;20826;-68
2022/10/25 06:11:30;;;;;;;2.35;2.15;;;;;;;23.02;46.75;101190.50;5094091;28;20035;-68
2022/10/25 06:13:55;;;;;;;3.45;2.20;;;;;;;23.00;46.81;101187.22;5092637;28;20035;-68
2022/10/25 06:16:22;;;;;;;4.53;2.08;;;;;;;22.95;46.57;101188.78;5087457;28;20050;-68
2022/10/25 06:18:47;;;;;;;4.15;2.17;;;;;;;22.96;46.84;101201.88;5094114;28;20092;-70
2022/10/25 06:21:19;;;;;;;5.25;2.42;;;;;;;23.01;46.83;101198.69;5085613;28;20035;-68
2022/10/25 06:23:46;;;;;;;4.85;2.00;;;;;;;22.94;46.87;101195.13;5094228;28;20031;-68
2022/10/25 06:26:14;;;;;;;2.95;2.30;;;;;;;22.95;46.94;101202.06;5090011;28;20664;-68
2022/10/25 06:28:40;;;;;;;2.75;2.20;;;;;;;22.95;46.79;101213.53;5089369;28;20047;-68
2022/10/25 06:31:13;;;;;;;4.60;2.53;;;;;;;22.98;46.78;101220.28;5086741;28;20178;-68
2022/10/25 06:33:39;;;;;;;3.78;2.30;;;;;;;22.87;46.86;101209.16;5090277;28;20128;-68
2022/10/25 06:36:09;;;;;;;3.75;2.10;;;;;;;22.89;47.16;101217.78;5087254;28;20116;-68
2022/10/25 06:38:34;;;;;;;4.00;2.15;;;;;;;22.90;47.00;101224.72;5089746;28;20109;-68
2022/10/25 06:41:02;;;;;;;3.13;2.17;;;;;;;22.96;46.87;101233.75;5083181;28;21132;-68
2022/10/25 06:43:28;;;;;;;4.43;2.45;;;;;;;22.94;46.83;101237.63;5088277;28;20036;-69
2022/10/25 06:45:53;;;;;;;3.80;2.40;;;;;;;22.86;46.96;101241.22;5083317;28;20040;-68
2022/10/25 06:48:19;;;;;;;3.83;2.45;;;;;;;22.88;47.14;101237.38;5087858;28;21108;-68
2022/10/25 06:50:44;;;;;;;3.92;2.60;;;;;;;22.91;46.79;101249.44;5092308;28;20064;-68
2022/10/25 06:53:10;;;;;;;3.83;2.50;;;;;;;22.92;47.01;101235.16;5092939;28;20043;-68
2022/10/25 06:55:35;;;;;;;4.70;2.40;;;;;;;22.85;47.05;101242.25;5090384;28;20032;-68
2022/10/25 06:58:01;;;;;;;5.43;2.15;;;;;;;22.86;46.85;101252.66;5092882;28;20123;-68
2022/10/25 07:00:26;;;;;;;2.83;2.20;;;;;;;22.88;46.96;101255.13;5086597;28;20039;-69
2022/10/25 07:02:59;;;;;;;4.30;2.85;;;;;;;22.94;46.90;101262.34;5077318;28;20488;-68
2022/10/25 07:05:25;;;;;;;3.30;2.42;;;;;;;22.87;47.05;101266.78;5092816;28;20477;-69
2022/10/25 07:07:52;;;;;;;4.30;2.58;;;;;;;22.84;46.96;101262.66;5093067;28;20044;-68
2022/10/25 07:10:18;;;;;;;3.63;2.47;;;;;;;22.79;46.94;101262.34;5084688;27;20044;-68
2022/10/25 07:12:44;;;;;;;4.10;2.10;;;;;;;22.85;47.18;101269.63;5085697;28;20389;-68
2022/10/25 07:15:10;;;;;;;4.10;2.60;;;;;;;22.88;46.74;101276.38;5087261;28;20044;-69
2022/10/25 07:17:35;;;;;;;5.47;2.83;;;;;;;22.90;46.86;101277.00;5087924;28;20047;-68
2022/10/25 07:20:01;;;;;;;4.95;2.28;;;;;;;22.83;46.94;101284.91;5086625;28;20544;-68
2022/10/25 07:22:27;;;;;;;4.22;2.22;;;;;;;22.79;47.24;101280.94;5086353;28;20043;-68
2022/10/25 07:24:52;;;;;;;3.85;2.47;;;;;;;22.84;46.91;101293.72;5083171;28;20044;-68
2022/10/25 07:27:18;;;;;;;5.80;2.58;;;;;;;22.84;46.88;101293.72;5085733;28;20157;-68
2022/10/25 07:29:44;;;;;;;2.95;2.40;;;;;;;22.76;47.10;101297.25;5083666;28;20036;-68
2022/10/25 07:32:10;;;;;;;3.22;2.55;;;;;;;22.74;47.42;101296.63;5081170;28;21978;-67
2022/10/25 07:34:35;;;;;;;3.55;2.10;;;;;;;22.78;47.14;101294.41;5080302;28;20027;-68
2022/10/25 07:37:01;;;;;;;4.20;2.28;;;;;;;22.75;47.04;101300.09;5076013;28;20036;-69
2022/10/25 07:39:27;;;;;;;4.63;2.65;;;;;;;22.77;46.97;101301.56;5083597;28;20043;-69
2022/10/25 07:41:53;;;;;;;3.88;2.50;;;;;;;22.76;47.18;101302.56;5085554;28;20093;-69
2022/10/25 07:44:21;;;;;;;3.05;2.10;;;;;;;22.74;47.34;101301.94;5091844;28;20039;-69
2022/10/25 07:46:48;;;;;;;2.60;2.10;;;;;;;22.72;47.20;101306.59;5081657;28;20038;-69
2022/10/25 07:49:14;;;;;;;4.78;2.30;;;;;;;22.71;47.20;101299.66;5087140;28;20073;-69
2022/10/25 07:51:40;;;;;;;3.85;2.53;;;;;;;22.75;47.10;101308.06;5084226;28;20169;-69
2022/10/25 07:54:06;;;;;;;4.18;2.63;;;;;;;22.72;47.26;101313.75;5087484;28;20031;-69
2022/10/25 07:56:32;;;;;;;5.93;2.40;;;;;;;22.74;47.18;101309.06;5084925;28;20481;-69
2022/10/25 07:58:57;;;;;;;2.97;2.20;;;;;;;22.77;47.31;101308.69;5087429;28;21381;-69
2022/10/25 08:01:25;;;;;;;4.63;2.22;;;;;;;22.73;47.11;101310.91;5085496;28;20044;-69
2022/10/25 08:03:52;;;;;;;4.15;2.45;;;;;;;22.66;47.33;101304.72;5085485;28;20055;-67
2022/10/25 08:06:19;;;;;;;7.40;2.97;;;;;;;22.60;47.42;101316.06;5086933;28;20028;-68
2022/10/25 08:08:44;;;;;;;4.55;2.30;;;;;;;22.74;47.44;101319.69;5088307;28;20078;-69
2022/10/25 08:11:10;;;;;;;5.05;2.30;;;;;;;22.83;47.10;101316.78;5096790;28;20538;-68
2022/10/25 08:13:36;;;;;;;5.07;2.63;;;;;;;22.72;47.14;101324.38;5091987;28;20020;-69
2022/10/25 08:16:02;;;;;;;4.50;2.63;;;;;;;22.86;46.76;101323.56;5093026;28;20034;-68
2022/10/25 08:18:28;;;;;;;3.45;2.13;;;;;;;22.73;47.17;101324.19;5090743;28;20185;-68
2022/10/25 08:20:54;;;;;;;4.50;2.85;;;;;;;22.80;46.94;101327.75;5090616;28;20110;-68
2022/10/25 08:23:20;;;;;;;5.30;2.20;;;;;;;22.77;46.99;101330.75;5093154;28;20035;-68
2022/10/25 08:25:46;;;;;;;3.95;2.80;;;;;;;22.78;47.00;101332.41;5092294;28;20030;-68
2022/10/25 08:28:12;;;;;;;5.97;3.00;;;;;;;22.76;46.85;101328.28;5096478;28;20453;-68
2022/10/25 08:30:39;;;;;;;4.80;2.28;;;;;;;22.86;46.98;101340.31;5092475;28;20038;-67
2022/10/25 08:33:05;;;;;;;6.60;2.63;;;;;;;22.78;47.07;101348.34;5092757;28;20409;-68
2022/10/25 08:35:31;;;;;;;5.15;2.50;;;;;;;22.78;47.07;101347.50;5088651;28;20043;-68
2022/10/25 08:38:00;;;;;;;4.15;2.70;;;;;;;22.77;47.28;101349.34;5085840;28;20040;-68
2022/10/25 08:40:30;;;;;;;4.93;2.35;;;;;;;22.84;46.92;101352.13;5093024;28;20053;-69
2022/10/25 08:43:08;;;;;;;5.78;2.72;;;;;;;22.80;47.23;101348.16;5087968;28;20032;-69
2022/10/25 08:45:38;;;;;;;4.18;2.45;;;;;;;22.79;47.18;101355.28;5088654;28;20047;-68
2022/10/25 08:48:03;;;;;;;;;;;;;;;;;;5093481;28;20036;-69
2022/10/25 08:50:39;;;;;;;5.03;2.88;;;;;;;22.86;46.94;101361.53;5090668;28;20004;-68
2022/10/25 08:53:13;;;;;;;4.57;2.70;;;;;;;22.78;47.14;101356.31;5086501;28;20039;-69
2022/10/25 08:55:42;;;;;;;6.05;2.83;;;;;;;22.76;46.87;101358.31;5087295;28;20065;-69
2022/10/25 08:58:15;;;;;;;5.53;2.75;;;;;;;22.84;46.73;101370.72;5088353;28;20039;-69
2022/10/25 09:00:43;;;;;;;6.45;2.55;;;;;;;22.79;47.16;101360.59;5086160;28;20051;-68
2022/10/25 09:03:15;;;;;;;5.28;2.83;;;;;;;22.84;46.90;101382.16;5088146;28;20260;-68
2022/10/25 09:05:50;;;;;;;4.00;3.08;;;;;;;22.75;47.01;101362.00;5089215;28;20069;-68
2022/10/25 09:08:30;;;;;;;4.55;2.58;;;;;;;22.78;46.86;101379.38;5092572;28;20031;-69
2022/10/25 09:11:02;;;;;;;3.63;2.53;;;;;;;22.75;47.09;101382.41;5089718;28;20039;-68
2022/10/25 09:13:39;;;;;;;6.10;2.90;;;;;;;22.72;47.26;101393.41;5088425;28;20126;-68
2022/10/25 09:16:23;;;;;;;4.38;2.60;;;;;;;22.75;47.12;101393.84;5087880;28;20048;-68
2022/10/25 09:18:53;;;;;;;6.18;2.88;;;;;;;22.78;47.14;101397.97;5084582;28;20054;-68
2022/10/25 09:21:29;;;;;;;4.63;2.90;;;;;;;22.77;47.08;101401.63;5091531;28;20255;-68
2022/10/25 09:24:26;;;;;;;4.05;2.58;;;;;;;22.82;46.83;101402.75;5085453;28;20035;-68
2022/10/25 09:27:06;;;;;;;6.93;3.88;;;;;;;22.74;47.13;101410.78;5088288;28;20052;-68
2022/10/25 09:29:59;;;;;;;7.22;2.83;;;;;;;22.75;47.32;101406.28;5088900;28;20044;-68
2022/10/25 09:32:33;;;;;;;5.90;2.88;;;;;;;22.74;47.02;101407.31;5088487;28;20043;-68
2022/10/25 09:35:02;;;;;;;5.80;3.10;;;;;;;22.82;46.74;101418.69;5087374;28;20529;-68
2022/10/25 09:37:34;;;;;;;5.93;3.17;;;;;;;22.80;46.96;101415.38;5091132;28;21255;-68
2022/10/25 09:40:05;;;;;;;8.32;3.17;;;;;;;22.80;46.93;101420.69;5090605;28;20043;-68
2022/10/25 09:42:39;;;;;;;5.57;3.13;;;;;;;22.81;46.94;101425.00;5090416;28;20035;-68
2022/10/25 09:45:19;;;;;;;7.40;3.00;;;;;;;22.81;46.75;101425.00;5090420;28;20038;-67
2022/10/25 09:47:56;;;;;;;4.03;2.65;;;;;;;22.79;47.01;101431.47;5087414;28;20054;-68
2022/10/25 09:50:49;;;;;;;4.43;2.72;;;;;;;22.82;46.81;101426.66;5085973;28;20044;-68
2022/10/25 09:53:18;;;;;;;6.38;3.03;;;;;;;22.72;47.09;101431.38;5080487;28;20047;-67
2022/10/25 09:55:59;;;;;;;7.90;3.45;;;;;;;22.77;47.13;101430.81;5087204;28;20554;-67
2022/10/25 09:58:37;;;;;;;7.13;2.97;;;;;;;22.72;47.38;101436.69;5087937;28;20401;-67
2022/10/25 10:01:24;;;;;;;6.25;2.90;;;;;;;22.73;47.00;101441.00;5086035;28;20040;-67
2022/10/25 10:03:50;;;;;;;4.43;3.00;;;;;;;22.78;46.90;101446.56;5093014;28;20131;-67
2022/10/25 10:06:25;;;;;;;4.38;2.75;;;;;;;22.73;47.18;101448.97;5091955;28;20501;-68
2022/10/25 10:09:06;;;;;;;8.10;3.35;;;;;;;22.73;47.11;101448.16;5085011;28;20798;-67
2022/10/25 10:11:35;;;;;;;7.60;3.10;;;;;;;22.75;46.95;101443.47;5084108;28;20043;-68
2022/10/25 10:14:17;;;;;;;6.50;3.10;;;;;;;22.76;46.95;101439.81;5086988;28;20508;-67
2022/10/25 10:16:53;;;;;;;7.63;2.90;;;;;;;22.71;47.46;101445.69;5087062;28;20530;-67
2022/10/25 10:19:21;;;;;;;5.28;2.67;;;;;;;22.74;47.46;101442.66;5087832;28;20525;-68
2022/10/25 10:21:50;;;;;;;7.97;3.00;;;;;;;22.77;47.28;101439.63;5088454;28;20039;-68
2022/10/25 10:24:28;;;;;;;4.45;2.92;;;;;;;22.74;47.10;101447.97;5086707;28;20047;-67
2022/10/25 10:26:57;;;;;;;5.78;2.97;;;;;;;22.75;47.25;101460.22;5086788;28;20019;-68
2022/10/25 10:29:29;;;;;;;5.50;3.00;;;;;;;22.80;46.83;101452.56;5087524;28;20135;-68
2022/10/25 10:32:05;;;;;;;6.35;2.92;;;;;;;22.77;47.29;101442.28;5085642;28;20035;-68
2022/10/25 10:34:49;;;;;;;8.40;3.10;;;;;;;22.80;46.90;101436.63;5086986;28;20047;-70
2022/10/25 10:37:25;;;;;;;6.82;3.00;;;;;;;22.87;47.03;101445.50;5084994;28;20887;-68
2022/10/25 10:40:21;;;;;;;5.65;2.90;;;;;;;22.96;46.76;101435.59;5086599;28;20105;-68
2022/10/25 10:42:46;;;;;;;5.38;2.83;;;;;;;22.87;46.92;101442.84;5086027;28;20433;-68
2022/10/25 10:45:16;;;;;;;4.75;2.78;;;;;;;22.72;47.31;101447.31;5086203;28;20047;-68
2022/10/25 10:47:59;;;;;;;;;;;;;;;22.83;46.87;101451.38;5086001;28;20035;-68
2022/10/25 10:50:31;;;;;;;6.35;3.13;;;;;;;22.79;47.00;101436.78;5084363;28;19959;-68
2022/10/25 10:53:01;;;;;;;3.78;2.60;;;;;;;;;;5081161;28;20610;-68
2022/10/25 10:55:28;;;;;;;;;;;;;;;22.75;47.16;101459.41;5088127;28;20152;-68
2022/10/25 10:57:58;;;;;;;4.95;3.20;;;;;;;22.79;47.00;101456.19;5088133;28;19915;-68
2022/10/25 11:00:27;;;;;;;5.10;2.80;;;;;;;22.79;47.20;101445.56;5101143;27;20046;-68
2022/10/25 11:02:53;;;;;;;5.05;3.53;;;;;;;22.75;47.18;101451.44;5085256;28;20089;-68
2022/10/25 11:05:30;;;;;;;5.82;2.70;;;;;;;22.61;47.51;101458.38;5085568;28;20118;-68
2022/10/25 11:08:02;;;;;;;6.30;3.05;;;;;;;22.80;47.14;101459.66;5084995;28;20077;-67
2022/10/25 11:10:32;;;;;;;5.50;2.80;;;;;;;22.71;47.12;101458.13;5086285;28;20053;-68
2022/10/25 11:13:16;;;;;;;7.30;3.05;;;;;;;22.73;47.24;101469.38;5085077;28;20597;-68
2022/10/25 11:16:00;;;;;;;5.22;2.75;;;;;;;22.71;47.36;101466.09;5087252;28;20067;-67
2022/10/25 11:18:38;;;;;;;7.32;2.97;;;;;;;22.79;47.22;101479.25;5085587;28;20031;-68
2022/10/25 11:21:41;;;;;;;6.15;2.90;;;;;;;22.79;47.22;101482.75;5085909;28;21033;-67
2022/10/25 11:24:41;;;;;;;4.18;2.75;;;;;;;22.80;47.17;101481.75;5083911;28;20055;-68
2022/10/25 11:27:07;;;;;;;5.05;3.05;;;;;;;;;;5087840;28;20047;-67
2022/10/25 11:29:47;;;;;;;4.63;2.72;;;;;;;22.64;47.53;101487.25;5089995;28;20114;-69
2022/10/25 11:32:33;;;;;;;6.43;3.17;;;;;;;22.66;47.55;101490.53;5086790;28;20037;-67
2022/10/25 11:35:54;;;;;;;7.40;3.10;;;;;;;22.78;47.31;101488.22;5076404;28;20035;-67
2022/10/25 11:38:26;;;;;;;5.18;2.88;;;;;;;22.75;47.52;101499.22;5049984;28;20040;-68
2022/10/25 11:41:10;;;;;;;7.82;3.47;;;;;;;22.75;47.18;101492.09;5086596;28;20058;-67